sensor_id;sensor_type;location;lat;lon;timestamp;temperature;humidity
22532;DHT22;11432;46.924;7.114;2022-12-07T00:01:30;1.00;99.90
22532;DHT22;11432;46.924;7.114;2022-12-07T00:03:57;1.00;99.90
22532;DHT22;11432;46.924;7.114;2022-12-07T00:06:29;1.00;99.90
22532;DHT22;11432;46.924;7.114;2022-12-07T00:08:55;1.00;99.90
22532;DHT22;11432;46.924;7.114;2022-12-07T00:11:22;1.00;99.90
22532;DHT22;11432;46.924;7.114;2022-12-07T00:13:55;1.00;99.90
22532;DHT22;11432;46.924;7.114;2022-12-07T00:16:24;1.00;99.90
22532;DHT22;11432;46.924;7.114;2022-12-07T00:18:50;0.90;99.90
22532;DHT22;11432;46.924;7.114;2022-12-07T00:21:21;0.90;99.90
22532;DHT22;11432;46.924;7.114;2022-12-07T00:23:48;0.90;99.90
22532;DHT22;11432;46.924;7.114;2022-12-07T00:26:17;0.90;99.90
22532;DHT22;11432;46.924;7.114;2022-12-07T00:28:55;0.90;99.90
22532;DHT22;11432;46.924;7.114;2022-12-07T00:31:23;0.90;99.90
22532;DHT22;11432;46.924;7.114;2022-12-07T00:33:49;0.90;99.90
22532;DHT22;11432;46.924;7.114;2022-12-07T00:36:17;0.90;99.90
22532;DHT22;11432;46.924;7.114;2022-12-07T00:38:43;0.90;99.90
22532;DHT22;11432;46.924;7.114;2022-12-07T00:41:15;0.80;99.90
22532;DHT22;11432;46.924;7.114;2022-12-07T00:43:42;0.90;99.90
22532;DHT22;11432;46.924;7.114;2022-12-07T00:46:08;0.90;99.90
22532;DHT22;11432;46.924;7.114;2022-12-07T00:48:34;0.90;99.90
22532;DHT22;11432;46.924;7.114;2022-12-07T00:51:01;0.90;99.90
22532;DHT22;11432;46.924;7.114;2022-12-07T00:53:27;0.90;99.90
22532;DHT22;11432;46.924;7.114;2022-12-07T00:55:52;0.90;99.90
22532;DHT22;11432;46.924;7.114;2022-12-07T00:58:19;0.90;99.90
22532;DHT22;11432;46.924;7.114;2022-12-07T01:00:45;0.90;99.90
22532;DHT22;11432;46.924;7.114;2022-12-07T01:03:12;0.90;99.90
22532;DHT22;11432;46.924;7.114;2022-12-07T01:05:38;0.90;99.90
22532;DHT22;11432;46.924;7.114;2022-12-07T01:08:04;0.90;99.90
22532;DHT22;11432;46.924;7.114;2022-12-07T01:10:30;0.90;99.90
22532;DHT22;11432;46.924;7.114;2022-12-07T01:12:57;0.90;99.90
22532;DHT22;11432;46.924;7.114;2022-12-07T01:15:23;0.90;99.90
22532;DHT22;11432;46.924;7.114;2022-12-07T01:17:49;0.90;99.90
22532;DHT22;11432;46.924;7.114;2022-12-07T01:20:15;1.00;99.90
22532;DHT22;11432;46.924;7.114;2022-12-07T01:22:42;1.00;99.90
22532;DHT22;11432;46.924;7.114;2022-12-07T01:25:09;1.00;99.90
22532;DHT22;11432;46.924;7.114;2022-12-07T01:27:36;1.00;99.90
22532;DHT22;11432;46.924;7.114;2022-12-07T01:30:04;1.00;99.90
22532;DHT22;11432;46.924;7.114;2022-12-07T01:32:30;1.00;99.90
22532;DHT22;11432;46.924;7.114;2022-12-07T01:34:56;1.00;99.90
22532;DHT22;11432;46.924;7.114;2022-12-07T01:37:22;1.00;99.90
22532;DHT22;11432;46.924;7.114;2022-12-07T01:39:51;1.00;99.90
22532;DHT22;11432;46.924;7.114;2022-12-07T01:42:17;1.00;99.90
22532;DHT22;11432;46.924;7.114;2022-12-07T01:46:02;1.00;99.90
22532;DHT22;11432;46.924;7.114;2022-12-07T01:47:57;0.90;99.90
22532;DHT22;11432;46.924;7.114;2022-12-07T01:50:26;0.90;99.90
22532;DHT22;11432;46.924;7.114;2022-12-07T01:52:54;0.90;99.90
22532;DHT22;11432;46.924;7.114;2022-12-07T01:55:22;0.90;99.90
22532;DHT22;11432;46.924;7.114;2022-12-07T01:57:49;1.00;99.90
22532;DHT22;11432;46.924;7.114;2022-12-07T02:00:16;1.00;99.90
22532;DHT22;11432;46.924;7.114;2022-12-07T02:02:51;1.00;99.90
22532;DHT22;11432;46.924;7.114;2022-12-07T02:05:18;1.00;99.90
22532;DHT22;11432;46.924;7.114;2022-12-07T02:07:44;1.10;99.90
22532;DHT22;11432;46.924;7.114;2022-12-07T02:10:16;1.10;99.90
22532;DHT22;11432;46.924;7.114;2022-12-07T02:12:44;1.00;99.90
22532;DHT22;11432;46.924;7.114;2022-12-07T02:15:11;1.00;99.90
22532;DHT22;11432;46.924;7.114;2022-12-07T02:17:46;1.00;99.90
22532;DHT22;11432;46.924;7.114;2022-12-07T02:23:18;1.00;99.90
22532;DHT22;11432;46.924;7.114;2022-12-07T02:26:15;0.90;99.90
22532;DHT22;11432;46.924;7.114;2022-12-07T02:29:13;1.00;99.90
22532;DHT22;11432;46.924;7.114;2022-12-07T02:31:52;1.00;99.90
22532;DHT22;11432;46.924;7.114;2022-12-07T02:34:26;1.00;99.90
22532;DHT22;11432;46.924;7.114;2022-12-07T02:36:57;1.10;99.90
22532;DHT22;11432;46.924;7.114;2022-12-07T02:39:44;1.10;99.90
22532;DHT22;11432;46.924;7.114;2022-12-07T02:42:24;1.20;99.90
22532;DHT22;11432;46.924;7.114;2022-12-07T02:44:50;1.20;99.90
22532;DHT22;11432;46.924;7.114;2022-12-07T02:47:19;1.20;99.90
22532;DHT22;11432;46.924;7.114;2022-12-07T02:49:46;1.30;99.90
22532;DHT22;11432;46.924;7.114;2022-12-07T02:52:12;1.20;99.90
22532;DHT22;11432;46.924;7.114;2022-12-07T02:54:37;1.20;99.90
22532;DHT22;11432;46.924;7.114;2022-12-07T03:13:17;1.00;99.90
22532;DHT22;11432;46.924;7.114;2022-12-07T03:18:25;1.00;99.90
22532;DHT22;11432;46.924;7.114;2022-12-07T03:20:56;1.00;99.90
22532;DHT22;11432;46.924;7.114;2022-12-07T03:23:23;1.00;99.90
22532;DHT22;11432;46.924;7.114;2022-12-07T03:25:55;1.00;99.90
22532;DHT22;11432;46.924;7.114;2022-12-07T03:28:24;1.00;99.90
22532;DHT22;11432;46.924;7.114;2022-12-07T03:31:00;1.10;99.90
22532;DHT22;11432;46.924;7.114;2022-12-07T03:33:44;1.10;99.90
22532;DHT22;11432;46.924;7.114;2022-12-07T03:36:20;1.00;99.90
22532;DHT22;11432;46.924;7.114;2022-12-07T03:39:00;1.00;99.90
22532;DHT22;11432;46.924;7.114;2022-12-07T03:41:31;1.00;99.90
22532;DHT22;11432;46.924;7.114;2022-12-07T03:43:59;1.10;99.90
22532;DHT22;11432;46.924;7.114;2022-12-07T03:46:34;1.10;99.90
22532;DHT22;11432;46.924;7.114;2022-12-07T03:49:25;1.10;99.90
22532;DHT22;11432;46.924;7.114;2022-12-07T03:52:18;1.00;99.90
22532;DHT22;11432;46.924;7.114;2022-12-07T03:57:10;1.20;99.90
22532;DHT22;11432;46.924;7.114;2022-12-07T03:59:37;1.20;99.90
22532;DHT22;11432;46.924;7.114;2022-12-07T04:02:06;1.10;99.90
22532;DHT22;11432;46.924;7.114;2022-12-07T04:04:32;1.20;99.90
22532;DHT22;11432;46.924;7.114;2022-12-07T04:06:58;1.10;99.90
22532;DHT22;11432;46.924;7.114;2022-12-07T04:09:24;1.20;99.90
22532;DHT22;11432;46.924;7.114;2022-12-07T04:11:50;1.30;99.90
22532;DHT22;11432;46.924;7.114;2022-12-07T04:14:15;1.30;99.90
22532;DHT22;11432;46.924;7.114;2022-12-07T04:16:52;1.40;99.90
22532;DHT22;11432;46.924;7.114;2022-12-07T04:19:20;1.40;99.90
22532;DHT22;11432;46.924;7.114;2022-12-07T04:21:46;1.30;99.90
22532;DHT22;11432;46.924;7.114;2022-12-07T04:24:13;1.30;99.90
22532;DHT22;11432;46.924;7.114;2022-12-07T04:26:40;1.30;99.90
22532;DHT22;11432;46.924;7.114;2022-12-07T04:29:07;1.30;99.90
22532;DHT22;11432;46.924;7.114;2022-12-07T04:31:32;1.20;99.90
22532;DHT22;11432;46.924;7.114;2022-12-07T04:33:58;1.20;99.90
22532;DHT22;11432;46.924;7.114;2022-12-07T04:36:24;1.30;99.90
22532;DHT22;11432;46.924;7.114;2022-12-07T04:38:49;1.30;99.90
22532;DHT22;11432;46.924;7.114;2022-12-07T04:41:15;1.30;99.90
22532;DHT22;11432;46.924;7.114;2022-12-07T04:43:41;1.20;99.90
22532;DHT22;11432;46.924;7.114;2022-12-07T04:46:06;1.20;99.90
22532;DHT22;11432;46.924;7.114;2022-12-07T04:48:32;1.30;99.90
22532;DHT22;11432;46.924;7.114;2022-12-07T04:50:58;1.30;99.90
22532;DHT22;11432;46.924;7.114;2022-12-07T04:53:23;1.30;99.90
22532;DHT22;11432;46.924;7.114;2022-12-07T04:55:49;1.30;99.90
22532;DHT22;11432;46.924;7.114;2022-12-07T04:58:14;1.40;99.90
22532;DHT22;11432;46.924;7.114;2022-12-07T05:00:40;1.40;99.90
22532;DHT22;11432;46.924;7.114;2022-12-07T05:03:06;1.40;99.90
22532;DHT22;11432;46.924;7.114;2022-12-07T05:05:32;1.40;99.90
22532;DHT22;11432;46.924;7.114;2022-12-07T05:07:57;1.40;99.90
22532;DHT22;11432;46.924;7.114;2022-12-07T05:10:23;1.50;99.90
22532;DHT22;11432;46.924;7.114;2022-12-07T05:12:49;1.50;99.90
22532;DHT22;11432;46.924;7.114;2022-12-07T05:15:15;1.50;99.90
22532;DHT22;11432;46.924;7.114;2022-12-07T05:17:41;1.50;99.90
22532;DHT22;11432;46.924;7.114;2022-12-07T05:20:07;1.50;99.90
22532;DHT22;11432;46.924;7.114;2022-12-07T05:22:33;1.60;99.90
22532;DHT22;11432;46.924;7.114;2022-12-07T05:24:59;1.60;99.90
22532;DHT22;11432;46.924;7.114;2022-12-07T05:27:24;1.60;99.90
22532;DHT22;11432;46.924;7.114;2022-12-07T05:29:50;1.60;99.90
22532;DHT22;11432;46.924;7.114;2022-12-07T05:32:16;1.60;99.90
22532;DHT22;11432;46.924;7.114;2022-12-07T05:34:42;1.60;99.90
22532;DHT22;11432;46.924;7.114;2022-12-07T05:37:08;1.60;99.90
22532;DHT22;11432;46.924;7.114;2022-12-07T05:39:34;1.60;99.90
22532;DHT22;11432;46.924;7.114;2022-12-07T05:41:59;1.60;99.90
22532;DHT22;11432;46.924;7.114;2022-12-07T05:44:41;1.60;99.90
22532;DHT22;11432;46.924;7.114;2022-12-07T05:47:07;1.60;99.90
22532;DHT22;11432;46.924;7.114;2022-12-07T05:49:33;1.60;99.90
22532;DHT22;11432;46.924;7.114;2022-12-07T05:51:59;1.60;99.90
22532;DHT22;11432;46.924;7.114;2022-12-07T05:54:24;1.60;99.90
22532;DHT22;11432;46.924;7.114;2022-12-07T05:56:50;1.60;99.90
22532;DHT22;11432;46.924;7.114;2022-12-07T05:59:16;1.60;99.90
22532;DHT22;11432;46.924;7.114;2022-12-07T06:01:51;1.60;99.90
22532;DHT22;11432;46.924;7.114;2022-12-07T06:04:18;1.60;99.90
22532;DHT22;11432;46.924;7.114;2022-12-07T06:06:43;1.50;99.90
22532;DHT22;11432;46.924;7.114;2022-12-07T06:09:09;1.50;99.90
22532;DHT22;11432;46.924;7.114;2022-12-07T06:11:35;1.60;99.90
22532;DHT22;11432;46.924;7.114;2022-12-07T06:14:19;1.60;99.90
22532;DHT22;11432;46.924;7.114;2022-12-07T06:16:45;1.50;99.90
22532;DHT22;11432;46.924;7.114;2022-12-07T06:19:11;1.50;99.90
22532;DHT22;11432;46.924;7.114;2022-12-07T06:21:36;1.50;99.90
22532;DHT22;11432;46.924;7.114;2022-12-07T06:24:02;1.60;99.90
22532;DHT22;11432;46.924;7.114;2022-12-07T06:26:28;1.60;99.90
22532;DHT22;11432;46.924;7.114;2022-12-07T06:28:53;1.70;99.90
22532;DHT22;11432;46.924;7.114;2022-12-07T06:31:20;1.70;99.90
22532;DHT22;11432;46.924;7.114;2022-12-07T06:33:46;1.70;99.90
22532;DHT22;11432;46.924;7.114;2022-12-07T06:36:12;1.70;99.90
22532;DHT22;11432;46.924;7.114;2022-12-07T06:38:37;1.70;99.90
22532;DHT22;11432;46.924;7.114;2022-12-07T06:41:03;1.80;99.90
22532;DHT22;11432;46.924;7.114;2022-12-07T06:43:29;1.70;99.90
22532;DHT22;11432;46.924;7.114;2022-12-07T06:45:55;1.70;99.90
22532;DHT22;11432;46.924;7.114;2022-12-07T06:48:21;1.70;99.90
22532;DHT22;11432;46.924;7.114;2022-12-07T06:50:47;1.70;99.90
22532;DHT22;11432;46.924;7.114;2022-12-07T06:53:13;1.70;99.90
22532;DHT22;11432;46.924;7.114;2022-12-07T06:55:38;1.70;99.90
22532;DHT22;11432;46.924;7.114;2022-12-07T06:58:04;1.70;99.90
22532;DHT22;11432;46.924;7.114;2022-12-07T07:00:30;1.70;99.90
22532;DHT22;11432;46.924;7.114;2022-12-07T07:02:56;1.70;99.90
22532;DHT22;11432;46.924;7.114;2022-12-07T07:05:22;1.70;99.90
22532;DHT22;11432;46.924;7.114;2022-12-07T07:07:49;1.60;99.90
22532;DHT22;11432;46.924;7.114;2022-12-07T07:10:14;1.60;99.90
22532;DHT22;11432;46.924;7.114;2022-12-07T07:12:40;1.60;99.90
22532;DHT22;11432;46.924;7.114;2022-12-07T07:15:06;1.60;99.90
22532;DHT22;11432;46.924;7.114;2022-12-07T07:17:32;1.60;99.90
22532;DHT22;11432;46.924;7.114;2022-12-07T07:19:57;1.60;99.90
22532;DHT22;11432;46.924;7.114;2022-12-07T07:22:23;1.70;99.90
22532;DHT22;11432;46.924;7.114;2022-12-07T07:24:48;1.70;99.90
22532;DHT22;11432;46.924;7.114;2022-12-07T07:27:14;1.70;99.90
22532;DHT22;11432;46.924;7.114;2022-12-07T07:29:40;1.70;99.90
22532;DHT22;11432;46.924;7.114;2022-12-07T07:32:05;1.70;99.90
22532;DHT22;11432;46.924;7.114;2022-12-07T07:34:33;1.80;99.90
22532;DHT22;11432;46.924;7.114;2022-12-07T07:36:58;1.80;99.90
22532;DHT22;11432;46.924;7.114;2022-12-07T07:39:24;1.90;99.90
22532;DHT22;11432;46.924;7.114;2022-12-07T07:41:49;1.90;99.90
22532;DHT22;11432;46.924;7.114;2022-12-07T07:44:15;1.80;99.90
22532;DHT22;11432;46.924;7.114;2022-12-07T07:46:40;1.80;99.90
22532;DHT22;11432;46.924;7.114;2022-12-07T07:49:06;2.40;99.90
22532;DHT22;11432;46.924;7.114;2022-12-07T07:51:32;2.40;99.90
22532;DHT22;11432;46.924;7.114;2022-12-07T07:55:37;2.10;99.90
22532;DHT22;11432;46.924;7.114;2022-12-07T07:58:02;2.00;99.90
22532;DHT22;11432;46.924;7.114;2022-12-07T08:00:28;1.90;99.90
22532;DHT22;11432;46.924;7.114;2022-12-07T08:02:54;1.90;99.90
22532;DHT22;11432;46.924;7.114;2022-12-07T08:05:19;1.90;99.90
22532;DHT22;11432;46.924;7.114;2022-12-07T08:07:45;1.90;99.90
22532;DHT22;11432;46.924;7.114;2022-12-07T08:10:12;1.90;99.90
22532;DHT22;11432;46.924;7.114;2022-12-07T08:12:39;2.00;99.90
22532;DHT22;11432;46.924;7.114;2022-12-07T08:15:27;2.00;99.90
22532;DHT22;11432;46.924;7.114;2022-12-07T08:17:53;2.00;99.90
22532;DHT22;11432;46.924;7.114;2022-12-07T08:20:20;2.00;99.90
22532;DHT22;11432;46.924;7.114;2022-12-07T08:22:45;2.10;99.90
22532;DHT22;11432;46.924;7.114;2022-12-07T08:25:11;2.20;99.90
22532;DHT22;11432;46.924;7.114;2022-12-07T08:27:36;2.30;99.90
22532;DHT22;11432;46.924;7.114;2022-12-07T08:30:02;2.30;99.90
22532;DHT22;11432;46.924;7.114;2022-12-07T08:32:28;2.30;99.90
22532;DHT22;11432;46.924;7.114;2022-12-07T08:34:54;3.50;99.90
22532;DHT22;11432;46.924;7.114;2022-12-07T08:37:19;5.60;99.90
22532;DHT22;11432;46.924;7.114;2022-12-07T08:39:45;7.80;99.90
22532;DHT22;11432;46.924;7.114;2022-12-07T08:42:10;6.90;1.00
22532;DHT22;11432;46.924;7.114;2022-12-07T08:44:36;5.40;1.00
22532;DHT22;11432;46.924;7.114;2022-12-07T08:47:04;4.30;1.00
22532;DHT22;11432;46.924;7.114;2022-12-07T08:49:36;3.70;1.00
22532;DHT22;11432;46.924;7.114;2022-12-07T08:52:04;3.20;1.00
22532;DHT22;11432;46.924;7.114;2022-12-07T08:54:30;3.00;1.00
22532;DHT22;11432;46.924;7.114;2022-12-07T08:56:56;2.80;10.20
22532;DHT22;11432;46.924;7.114;2022-12-07T08:59:22;2.60;36.00
22532;DHT22;11432;46.924;7.114;2022-12-07T09:01:48;2.60;99.90
22532;DHT22;11432;46.924;7.114;2022-12-07T09:04:14;2.60;84.50
22532;DHT22;11432;46.924;7.114;2022-12-07T09:06:41;2.50;99.90
22532;DHT22;11432;46.924;7.114;2022-12-07T09:09:07;2.50;99.90
22532;DHT22;11432;46.924;7.114;2022-12-07T09:11:33;2.50;99.90
22532;DHT22;11432;46.924;7.114;2022-12-07T09:13:59;2.50;99.90
22532;DHT22;11432;46.924;7.114;2022-12-07T09:16:24;2.60;99.90
22532;DHT22;11432;46.924;7.114;2022-12-07T09:18:50;2.60;90.90
22532;DHT22;11432;46.924;7.114;2022-12-07T09:21:16;2.70;92.50
22532;DHT22;11432;46.924;7.114;2022-12-07T09:23:42;2.70;99.90
22532;DHT22;11432;46.924;7.114;2022-12-07T09:26:08;2.70;99.90
22532;DHT22;11432;46.924;7.114;2022-12-07T09:28:33;2.70;99.90
22532;DHT22;11432;46.924;7.114;2022-12-07T09:30:59;2.70;99.90
22532;DHT22;11432;46.924;7.114;2022-12-07T09:33:25;2.80;99.90
22532;DHT22;11432;46.924;7.114;2022-12-07T09:35:51;2.80;99.90
22532;DHT22;11432;46.924;7.114;2022-12-07T09:38:18;2.80;99.90
22532;DHT22;11432;46.924;7.114;2022-12-07T09:40:44;2.80;99.90
22532;DHT22;11432;46.924;7.114;2022-12-07T09:43:21;2.80;99.90
22532;DHT22;11432;46.924;7.114;2022-12-07T09:45:49;2.80;99.90
22532;DHT22;11432;46.924;7.114;2022-12-07T09:48:18;2.80;99.90
22532;DHT22;11432;46.924;7.114;2022-12-07T09:50:46;2.80;99.90
22532;DHT22;11432;46.924;7.114;2022-12-07T09:53:25;2.70;99.90
22532;DHT22;11432;46.924;7.114;2022-12-07T09:55:51;2.80;99.90
22532;DHT22;11432;46.924;7.114;2022-12-07T09:58:22;2.90;99.90
22532;DHT22;11432;46.924;7.114;2022-12-07T10:00:50;2.80;99.90
22532;DHT22;11432;46.924;7.114;2022-12-07T10:03:16;2.90;99.90
22532;DHT22;11432;46.924;7.114;2022-12-07T10:05:46;3.00;99.90
22532;DHT22;11432;46.924;7.114;2022-12-07T10:08:13;3.10;99.90
22532;DHT22;11432;46.924;7.114;2022-12-07T10:10:41;3.10;99.90
22532;DHT22;11432;46.924;7.114;2022-12-07T10:13:09;3.00;99.90
22532;DHT22;11432;46.924;7.114;2022-12-07T10:15:53;3.10;98.90
22532;DHT22;11432;46.924;7.114;2022-12-07T10:24:02;3.10;94.50
22532;DHT22;11432;46.924;7.114;2022-12-07T10:29:19;3.10;99.90
22532;DHT22;11432;46.924;7.114;2022-12-07T10:31:51;3.10;98.00
22532;DHT22;11432;46.924;7.114;2022-12-07T10:34:30;3.10;95.60
22532;DHT22;11432;46.924;7.114;2022-12-07T10:39:54;3.10;99.90
22532;DHT22;11432;46.924;7.114;2022-12-07T10:42:31;3.20;99.90
22532;DHT22;11432;46.924;7.114;2022-12-07T10:58:50;3.40;99.90
22532;DHT22;11432;46.924;7.114;2022-12-07T11:01:48;3.50;93.80
22532;DHT22;11432;46.924;7.114;2022-12-07T11:20:45;3.70;45.60
22532;DHT22;11432;46.924;7.114;2022-12-07T11:28:46;3.80;10.50
22532;DHT22;11432;46.924;7.114;2022-12-07T11:31:49;3.70;8.20
22532;DHT22;11432;46.924;7.114;2022-12-07T11:34:36;3.80;21.80
22532;DHT22;11432;46.924;7.114;2022-12-07T11:37:10;3.90;12.20
22532;DHT22;11432;46.924;7.114;2022-12-07T11:39:52;3.90;1.30
22532;DHT22;11432;46.924;7.114;2022-12-07T11:42:26;3.90;1.00
22532;DHT22;11432;46.924;7.114;2022-12-07T11:44:57;4.00;1.00
22532;DHT22;11432;46.924;7.114;2022-12-07T11:47:40;4.00;1.00
22532;DHT22;11432;46.924;7.114;2022-12-07T11:50:52;4.10;1.00
22532;DHT22;11432;46.924;7.114;2022-12-07T12:04:19;4.40;1.00
22532;DHT22;11432;46.924;7.114;2022-12-07T12:06:47;4.50;1.00
22532;DHT22;11432;46.924;7.114;2022-12-07T12:09:19;4.60;11.60
22532;DHT22;11432;46.924;7.114;2022-12-07T12:12:08;4.50;37.80
22532;DHT22;11432;46.924;7.114;2022-12-07T12:14:48;4.60;37.20
22532;DHT22;11432;46.924;7.114;2022-12-07T12:20:19;4.80;37.30
22532;DHT22;11432;46.924;7.114;2022-12-07T12:23:00;4.70;34.20
22532;DHT22;11432;46.924;7.114;2022-12-07T12:25:45;4.70;1.00
22532;DHT22;11432;46.924;7.114;2022-12-07T12:33:31;4.60;1.00
22532;DHT22;11432;46.924;7.114;2022-12-07T12:36:20;4.60;15.80
22532;DHT22;11432;46.924;7.114;2022-12-07T12:47:03;4.60;1.00
22532;DHT22;11432;46.924;7.114;2022-12-07T12:49:35;4.60;1.00
22532;DHT22;11432;46.924;7.114;2022-12-07T12:52:46;4.70;1.00
22532;DHT22;11432;46.924;7.114;2022-12-07T12:55:15;4.70;1.00
22532;DHT22;11432;46.924;7.114;2022-12-07T13:00:31;4.70;1.00
22532;DHT22;11432;46.924;7.114;2022-12-07T13:02:58;4.60;1.00
22532;DHT22;11432;46.924;7.114;2022-12-07T13:05:30;4.60;1.00
22532;DHT22;11432;46.924;7.114;2022-12-07T13:08:25;4.60;1.00
22532;DHT22;11432;46.924;7.114;2022-12-07T13:10:48;4.60;1.00
22532;DHT22;11432;46.924;7.114;2022-12-07T13:20:53;4.60;1.00
22532;DHT22;11432;46.924;7.114;2022-12-07T13:26:26;4.50;1.00
22532;DHT22;11432;46.924;7.114;2022-12-07T13:31:41;4.60;1.00
22532;DHT22;11432;46.924;7.114;2022-12-07T13:37:04;4.50;1.00
22532;DHT22;11432;46.924;7.114;2022-12-07T13:39:50;4.50;1.00
22532;DHT22;11432;46.924;7.114;2022-12-07T13:42:31;4.60;1.00
22532;DHT22;11432;46.924;7.114;2022-12-07T13:44:59;4.70;1.00
22532;DHT22;11432;46.924;7.114;2022-12-07T13:47:30;4.80;1.00
22532;DHT22;11432;46.924;7.114;2022-12-07T13:49:57;4.80;1.00
22532;DHT22;11432;46.924;7.114;2022-12-07T13:52:25;4.90;1.00
22532;DHT22;11432;46.924;7.114;2022-12-07T13:57:33;4.90;1.00
22532;DHT22;11432;46.924;7.114;2022-12-07T14:00:04;4.80;1.00
22532;DHT22;11432;46.924;7.114;2022-12-07T14:02:32;4.80;1.00
22532;DHT22;11432;46.924;7.114;2022-12-07T14:05:22;4.70;1.00
22532;DHT22;11432;46.924;7.114;2022-12-07T14:07:56;4.70;1.00
22532;DHT22;11432;46.924;7.114;2022-12-07T14:10:24;4.70;1.00
22532;DHT22;11432;46.924;7.114;2022-12-07T14:12:50;4.70;1.00
22532;DHT22;11432;46.924;7.114;2022-12-07T14:15:24;4.70;1.00
22532;DHT22;11432;46.924;7.114;2022-12-07T14:17:52;4.60;19.40
22532;DHT22;11432;46.924;7.114;2022-12-07T14:20:45;4.50;41.20
22532;DHT22;11432;46.924;7.114;2022-12-07T14:23:26;4.40;33.30
22532;DHT22;11432;46.924;7.114;2022-12-07T14:25:53;4.40;48.50
22532;DHT22;11432;46.924;7.114;2022-12-07T14:30:51;4.30;10.90
22532;DHT22;11432;46.924;7.114;2022-12-07T14:33:17;4.40;1.00
22532;DHT22;11432;46.924;7.114;2022-12-07T14:35:43;4.30;16.30
22532;DHT22;11432;46.924;7.114;2022-12-07T14:38:09;4.30;49.50
22532;DHT22;11432;46.924;7.114;2022-12-07T14:40:35;4.20;44.70
22532;DHT22;11432;46.924;7.114;2022-12-07T14:43:02;4.20;23.10
22532;DHT22;11432;46.924;7.114;2022-12-07T14:45:29;4.20;26.40
22532;DHT22;11432;46.924;7.114;2022-12-07T14:47:55;4.20;1.00
22532;DHT22;11432;46.924;7.114;2022-12-07T14:50:21;4.10;1.00
22532;DHT22;11432;46.924;7.114;2022-12-07T14:52:54;4.10;1.00
22532;DHT22;11432;46.924;7.114;2022-12-07T14:55:24;4.10;1.00
22532;DHT22;11432;46.924;7.114;2022-12-07T14:57:51;4.10;1.00
22532;DHT22;11432;46.924;7.114;2022-12-07T15:00:18;4.00;1.00
22532;DHT22;11432;46.924;7.114;2022-12-07T15:02:45;4.00;1.00
22532;DHT22;11432;46.924;7.114;2022-12-07T15:05:11;4.00;1.00
22532;DHT22;11432;46.924;7.114;2022-12-07T15:07:37;3.90;1.00
22532;DHT22;11432;46.924;7.114;2022-12-07T15:10:03;3.90;1.00
22532;DHT22;11432;46.924;7.114;2022-12-07T15:12:29;3.80;1.00
22532;DHT22;11432;46.924;7.114;2022-12-07T15:14:54;3.70;1.00
22532;DHT22;11432;46.924;7.114;2022-12-07T15:17:20;3.60;27.10
22532;DHT22;11432;46.924;7.114;2022-12-07T15:19:45;3.50;27.50
22532;DHT22;11432;46.924;7.114;2022-12-07T15:22:11;3.40;56.60
22532;DHT22;11432;46.924;7.114;2022-12-07T15:24:37;3.40;72.70
22532;DHT22;11432;46.924;7.114;2022-12-07T15:27:03;3.30;93.10
22532;DHT22;11432;46.924;7.114;2022-12-07T15:29:29;3.20;96.90
22532;DHT22;11432;46.924;7.114;2022-12-07T15:31:55;3.20;99.90
22532;DHT22;11432;46.924;7.114;2022-12-07T15:34:21;3.10;99.90
22532;DHT22;11432;46.924;7.114;2022-12-07T15:36:46;3.00;99.90
22532;DHT22;11432;46.924;7.114;2022-12-07T15:39:12;3.00;99.90
22532;DHT22;11432;46.924;7.114;2022-12-07T15:41:38;2.90;99.90
22532;DHT22;11432;46.924;7.114;2022-12-07T15:44:04;2.90;99.90
22532;DHT22;11432;46.924;7.114;2022-12-07T15:46:48;2.90;99.90
22532;DHT22;11432;46.924;7.114;2022-12-07T15:49:18;2.90;99.90
22532;DHT22;11432;46.924;7.114;2022-12-07T15:51:45;2.90;99.90
22532;DHT22;11432;46.924;7.114;2022-12-07T15:54:18;2.90;99.90
22532;DHT22;11432;46.924;7.114;2022-12-07T15:56:44;2.80;99.90
22532;DHT22;11432;46.924;7.114;2022-12-07T15:59:09;2.80;99.90
22532;DHT22;11432;46.924;7.114;2022-12-07T16:01:35;2.70;99.90
22532;DHT22;11432;46.924;7.114;2022-12-07T16:04:00;2.70;99.90
22532;DHT22;11432;46.924;7.114;2022-12-07T16:06:26;2.70;99.90
22532;DHT22;11432;46.924;7.114;2022-12-07T16:08:52;2.70;99.90
22532;DHT22;11432;46.924;7.114;2022-12-07T16:11:17;2.70;99.90
22532;DHT22;11432;46.924;7.114;2022-12-07T16:13:43;2.70;99.90
22532;DHT22;11432;46.924;7.114;2022-12-07T16:16:14;2.70;99.90
22532;DHT22;11432;46.924;7.114;2022-12-07T16:18:41;2.60;99.90
22532;DHT22;11432;46.924;7.114;2022-12-07T16:21:07;2.60;99.90
22532;DHT22;11432;46.924;7.114;2022-12-07T16:23:33;2.60;99.90
22532;DHT22;11432;46.924;7.114;2022-12-07T16:26:27;2.60;99.90
22532;DHT22;11432;46.924;7.114;2022-12-07T16:28:53;2.60;99.90
22532;DHT22;11432;46.924;7.114;2022-12-07T16:31:24;2.60;99.90
22532;DHT22;11432;46.924;7.114;2022-12-07T16:33:54;2.60;99.90
22532;DHT22;11432;46.924;7.114;2022-12-07T16:36:20;2.60;99.90
22532;DHT22;11432;46.924;7.114;2022-12-07T16:38:48;2.60;99.90
22532;DHT22;11432;46.924;7.114;2022-12-07T16:41:14;2.60;99.90
22532;DHT22;11432;46.924;7.114;2022-12-07T16:43:39;2.60;99.90
22532;DHT22;11432;46.924;7.114;2022-12-07T16:46:05;2.60;99.90
22532;DHT22;11432;46.924;7.114;2022-12-07T16:48:31;2.60;99.90
22532;DHT22;11432;46.924;7.114;2022-12-07T16:50:56;2.60;99.90
22532;DHT22;11432;46.924;7.114;2022-12-07T16:53:23;2.60;99.90
22532;DHT22;11432;46.924;7.114;2022-12-07T16:55:49;2.50;99.90
22532;DHT22;11432;46.924;7.114;2022-12-07T16:58:16;2.60;99.90
22532;DHT22;11432;46.924;7.114;2022-12-07T17:00:43;2.50;99.90
22532;DHT22;11432;46.924;7.114;2022-12-07T17:03:09;2.50;99.90
22532;DHT22;11432;46.924;7.114;2022-12-07T17:05:40;2.50;99.90
22532;DHT22;11432;46.924;7.114;2022-12-07T17:08:06;2.50;99.90
22532;DHT22;11432;46.924;7.114;2022-12-07T17:10:34;2.50;99.90
22532;DHT22;11432;46.924;7.114;2022-12-07T17:13:01;2.40;99.90
22532;DHT22;11432;46.924;7.114;2022-12-07T17:15:27;2.40;99.90
22532;DHT22;11432;46.924;7.114;2022-12-07T17:17:55;2.40;99.90
22532;DHT22;11432;46.924;7.114;2022-12-07T17:20:25;2.40;99.90
22532;DHT22;11432;46.924;7.114;2022-12-07T17:22:51;2.50;99.90
22532;DHT22;11432;46.924;7.114;2022-12-07T17:25:17;2.40;99.90
22532;DHT22;11432;46.924;7.114;2022-12-07T17:27:43;2.40;99.90
22532;DHT22;11432;46.924;7.114;2022-12-07T17:30:11;2.40;99.90
22532;DHT22;11432;46.924;7.114;2022-12-07T17:32:37;2.40;99.90
22532;DHT22;11432;46.924;7.114;2022-12-07T17:35:03;2.40;99.90
22532;DHT22;11432;46.924;7.114;2022-12-07T17:37:30;2.40;99.90
22532;DHT22;11432;46.924;7.114;2022-12-07T17:39:56;2.40;99.90
22532;DHT22;11432;46.924;7.114;2022-12-07T17:42:23;2.30;99.90
22532;DHT22;11432;46.924;7.114;2022-12-07T17:45:08;2.30;99.90
22532;DHT22;11432;46.924;7.114;2022-12-07T17:47:36;2.30;99.90
22532;DHT22;11432;46.924;7.114;2022-12-07T17:50:02;2.20;99.90
22532;DHT22;11432;46.924;7.114;2022-12-07T17:52:28;2.20;99.90
22532;DHT22;11432;46.924;7.114;2022-12-07T17:55:12;2.10;99.90
22532;DHT22;11432;46.924;7.114;2022-12-07T17:57:38;2.10;99.90
22532;DHT22;11432;46.924;7.114;2022-12-07T18:00:05;2.10;99.90
22532;DHT22;11432;46.924;7.114;2022-12-07T18:02:31;2.10;99.90
22532;DHT22;11432;46.924;7.114;2022-12-07T18:04:56;2.10;99.90